Time;durP1;ratioP1;P1;durP2;ratioP2;P2;SDS_P1;SDS_P2;PMS_P1;PMS_P2;Temp;Humidity;BMP_temperature;BMP_pressure;BME280_temperature;BME280_humidity;BME280_pressure;Samples;Min_cycle;Max_cycle;Signal;HPM_P1;HPM_P2
2023/12/13 00:00:43;;;;;;;16.70;8.10;;;;;;;14.95;36.12;100124.85;105615;1256;60898;-61
2023/12/13 00:03:10;;;;;;;15.50;8.00;;;;;;;14.93;36.11;100129.84;105801;1257;64939;-61
2023/12/13 00:05:38;;;;;;;23.50;9.70;;;;;;;14.88;36.04;100131.27;105586;1257;60442;-63
2023/12/13 00:08:06;;;;;;;15.90;8.20;;;;;;;14.80;35.95;100130.80;105577;1257;62527;-64
2023/12/13 00:10:34;;;;;;;18.00;9.00;;;;;;;14.74;35.95;100130.37;105454;1257;60569;-63
2023/12/13 00:13:03;;;;;;;22.20;9.60;;;;;;;14.68;36.06;100131.18;105405;1255;60440;-64
2023/12/13 00:15:31;;;;;;;16.20;6.30;;;;;;;14.66;35.97;100132.23;105206;1256;63667;-64
2023/12/13 00:17:58;;;;;;;17.70;5.80;;;;;;;14.68;35.86;100138.40;105414;1260;61827;-63
2023/12/13 00:20:26;;;;;;;16.40;6.50;;;;;;;14.72;35.89;100141.84;109359;1256;62463;-65
2023/12/13 00:22:55;;;;;;;15.00;7.00;;;;;;;14.85;36.22;100146.58;109372;1251;58186;-64
2023/12/13 00:25:22;;;;;;;17.10;5.60;;;;;;;14.96;36.26;100146.20;109258;1251;58561;-64
2023/12/13 00:27:51;;;;;;;16.00;5.90;;;;;;;15.03;36.11;100146.45;106976;1252;64955;-62
2023/12/13 00:30:19;;;;;;;31.70;20.20;;;;;;;15.07;36.11;100141.90;105481;1257;61338;-63
2023/12/13 00:32:46;;;;;;;16.80;6.50;;;;;;;15.09;36.13;100139.02;105586;1256;62473;-62
2023/12/13 00:35:14;;;;;;;18.30;6.90;;;;;;;15.12;36.08;100137.69;105730;1257;60561;-63
2023/12/13 00:37:42;;;;;;;16.70;7.60;;;;;;;15.13;36.02;100136.14;105625;1257;60418;-62
2023/12/13 00:40:10;;;;;;;19.80;8.10;;;;;;;15.07;35.88;100132.17;105631;1256;65304;-62
2023/12/13 00:42:38;;;;;;;17.80;8.60;;;;;;;15.04;36.01;100128.52;105743;1251;60395;-59
2023/12/13 00:45:06;;;;;;;18.20;8.80;;;;;;;15.06;36.03;100129.60;105625;1256;70426;-60
2023/12/13 00:47:34;;;;;;;23.30;10.40;;;;;;;15.02;36.04;100127.31;105803;1257;60613;-60
2023/12/13 00:50:03;;;;;;;17.20;8.70;;;;;;;14.95;35.99;100123.28;105794;1256;60446;-57
2023/12/13 00:52:32;;;;;;;16.20;8.00;;;;;;;14.86;35.98;100125.11;105986;1256;65039;-61
2023/12/13 00:55:01;;;;;;;15.60;5.90;;;;;;;14.80;36.03;100121.50;105575;1256;60382;-60
2023/12/13 00:57:28;;;;;;;16.20;6.00;;;;;;;14.83;35.99;100118.57;106030;1256;63736;-60
2023/12/13 00:59:56;;;;;;;15.20;7.80;;;;;;;14.87;35.96;100118.48;106809;1251;60427;-61
2023/12/13 01:02:24;;;;;;;19.90;7.70;;;;;;;14.88;36.08;100117.30;105569;1257;60441;-59
2023/12/13 01:04:52;;;;;;;17.60;5.20;;;;;;;14.92;36.19;100116.92;106062;1251;63719;-63
2023/12/13 01:07:21;;;;;;;20.20;8.80;;;;;;;14.99;36.18;100118.27;106089;1251;61446;-64
2023/12/13 01:09:49;;;;;;;18.20;7.80;;;;;;;15.04;36.14;100118.45;106248;1251;62489;-62
2023/12/13 01:12:17;;;;;;;18.90;8.00;;;;;;;15.05;36.15;100116.39;105691;1257;60555;-60
2023/12/13 01:14:44;;;;;;;17.90;9.30;;;;;;;15.03;36.10;100117.29;105612;1251;60345;-59
2023/12/13 01:17:13;;;;;;;23.10;8.20;;;;;;;15.03;36.11;100119.46;105629;1255;65642;-60
2023/12/13 01:19:40;;;;;;;15.70;8.20;;;;;;;15.07;36.14;100128.06;105641;1251;61343;-62
2023/12/13 01:22:08;;;;;;;23.20;9.00;;;;;;;15.10;36.03;100128.02;105544;1257;62412;-61
2023/12/13 01:24:37;;;;;;;19.10;8.70;;;;;;;15.08;36.07;100128.86;105737;1257;62297;-63
2023/12/13 01:27:05;;;;;;;19.00;8.10;;;;;;;15.04;35.97;100126.06;105895;1252;60377;-61
2023/12/13 01:29:32;;;;;;;18.60;9.00;;;;;;;14.97;35.87;100125.01;105601;1256;67508;-60
2023/12/13 01:32:00;;;;;;;17.00;9.50;;;;;;;14.92;35.97;100122.59;105560;1255;61380;-61
2023/12/13 01:34:29;;;;;;;17.30;7.60;;;;;;;14.86;35.99;100115.57;105548;1254;70791;-63
2023/12/13 01:36:56;;;;;;;14.30;6.00;;;;;;;14.82;36.09;100114.85;105576;1256;60441;-62
2023/12/13 01:39:24;;;;;;;15.00;5.10;;;;;;;14.84;35.90;100111.66;105579;1251;60622;-61
2023/12/13 01:41:52;;;;;;;14.10;6.80;;;;;;;14.87;36.04;100108.56;105588;1251;65019;-63
2023/12/13 01:44:19;;;;;;;14.70;5.60;;;;;;;14.93;36.05;100112.86;105628;1251;60526;-62
2023/12/13 01:46:47;;;;;;;18.10;6.10;;;;;;;15.02;36.22;100112.51;105946;1257;64388;-62
2023/12/13 01:49:15;;;;;;;16.00;7.90;;;;;;;15.15;36.08;100108.55;105491;1251;61166;-63
2023/12/13 01:51:43;;;;;;;17.30;7.10;;;;;;;15.19;35.98;100106.81;105583;1256;60363;-60
2023/12/13 01:54:11;;;;;;;17.00;7.90;;;;;;;15.16;36.06;100113.00;105724;1251;64887;-62
2023/12/13 01:56:41;;;;;;;16.70;8.20;;;;;;;15.13;36.39;100118.32;105485;1251;61498;-61
2023/12/13 01:59:09;;;;;;;17.20;7.60;;;;;;;15.14;36.33;100119.55;105706;1251;64123;-62
2023/12/13 02:01:37;;;;;;;16.00;8.10;;;;;;;15.14;36.32;100116.57;105758;1252;60455;-62
2023/12/13 02:04:05;;;;;;;17.90;7.00;;;;;;;15.11;36.19;100120.77;105793;1254;60428;-63
2023/12/13 02:06:32;;;;;;;20.60;8.80;;;;;;;15.08;36.17;100126.41;105876;1256;65386;-63
2023/12/13 02:09:00;;;;;;;19.40;9.40;;;;;;;15.03;36.27;100127.39;105972;1251;61674;-62
2023/12/13 02:11:28;;;;;;;22.00;8.60;;;;;;;14.99;36.20;100125.73;105598;1254;63678;-63
2023/12/13 02:13:56;;;;;;;20.60;6.80;;;;;;;14.94;36.34;100125.54;105555;1251;60434;-62
2023/12/13 02:16:24;;;;;;;15.30;6.90;;;;;;;14.91;36.25;100126.20;106075;1257;60459;-61
2023/12/13 02:18:52;;;;;;;17.20;7.20;;;;;;;14.91;36.32;100124.94;106980;1251;63727;-62
2023/12/13 02:21:20;;;;;;;16.60;6.50;;;;;;;14.96;36.32;100114.69;107118;1251;60540;-63
2023/12/13 02:23:48;;;;;;;15.40;6.60;;;;;;;15.02;36.27;100112.70;105623;1256;63809;-62
2023/12/13 02:26:16;;;;;;;15.30;5.70;;;;;;;15.08;36.23;100108.95;106130;1254;61010;-60
2023/12/13 02:28:43;;;;;;;14.30;6.40;;;;;;;15.10;36.21;100107.67;105639;1257;59616;-62
2023/12/13 02:31:11;;;;;;;18.40;8.50;;;;;;;15.16;36.16;100106.67;105412;1257;63643;-60
2023/12/13 02:33:40;;;;;;;22.00;11.10;;;;;;;15.18;36.14;100104.82;105600;1254;60569;-60
2023/12/13 02:36:09;;;;;;;38.60;24.20;;;;;;;15.17;36.12;100107.28;105584;1255;62665;-59
2023/12/13 02:38:37;;;;;;;17.50;9.30;;;;;;;15.14;36.18;100109.02;105716;1254;60383;-61
2023/12/13 02:43:59;;;;;;;21.10;9.90;;;;;;;13.16;40.07;100122.34;102244;1292;600647;-63
2023/12/13 02:46:28;;;;;;;17.80;8.30;;;;;;;14.58;37.31;100121.06;104945;1269;59372;-59
2023/12/13 02:48:59;;;;;;;20.80;7.00;;;;;;;14.73;36.94;100121.70;105022;1270;59292;-60
2023/12/13 02:51:27;;;;;;;19.80;8.90;;;;;;;14.77;36.91;100125.91;104507;1267;62271;-60
2023/12/13 02:53:54;;;;;;;16.90;7.20;;;;;;;14.76;36.96;100132.67;104980;1267;61385;-60
2023/12/13 02:56:26;;;;;;;24.40;8.20;;;;;;;14.75;36.84;100131.48;104409;1267;3581276;-62
2023/12/13 02:58:53;;;;;;;19.00;7.30;;;;;;;14.85;36.77;100128.21;105247;1269;59276;-62
2023/12/13 03:01:21;;;;;;;23.60;8.10;;;;;;;14.89;36.53;100125.83;105789;1261;59254;-60
2023/12/13 03:03:49;;;;;;;18.20;7.30;;;;;;;14.91;36.58;100122.11;105847;1260;59490;-60
2023/12/13 03:06:17;;;;;;;18.20;6.40;;;;;;;14.98;36.65;100121.76;105241;1257;63290;-61
2023/12/13 03:08:45;;;;;;;18.50;7.60;;;;;;;15.03;36.64;100120.20;105340;1257;61369;-61
2023/12/13 03:11:12;;;;;;;22.10;9.20;;;;;;;15.09;36.65;100120.48;105417;1257;63778;-61
2023/12/13 03:13:40;;;;;;;20.10;9.90;;;;;;;15.18;36.64;100116.56;105244;1257;59727;-60
2023/12/13 03:16:08;;;;;;;18.70;9.10;;;;;;;15.20;36.63;100120.77;105313;1262;59660;-60
2023/12/13 03:18:36;;;;;;;20.00;9.80;;;;;;;15.21;36.50;100125.45;105413;1256;63161;-60
2023/12/13 03:21:05;;;;;;;16.60;9.70;;;;;;;15.22;36.44;100128.23;105447;1261;60275;-61
2023/12/13 03:23:32;;;;;;;23.30;10.40;;;;;;;15.20;36.27;100128.85;105526;1257;63675;-61
2023/12/13 03:26:01;;;;;;;42.70;25.50;;;;;;;15.18;36.13;100131.49;105202;1257;59647;-61
2023/12/13 03:28:28;;;;;;;16.60;8.00;;;;;;;15.15;36.11;100137.54;105580;1257;59730;-60
2023/12/13 03:30:56;;;;;;;21.50;7.90;;;;;;;15.12;36.14;100140.98;105663;1263;63019;-62
2023/12/13 03:33:24;;;;;;;25.40;7.60;;;;;;;15.18;35.99;100146.55;105635;1256;61610;-60
2023/12/13 03:35:52;;;;;;;22.30;8.40;;;;;;;15.13;36.26;100152.23;105198;1262;63706;-61
2023/12/13 03:38:20;;;;;;;22.00;6.30;;;;;;;15.12;36.42;100158.14;105658;1258;59790;-61
2023/12/13 03:40:47;;;;;;;18.30;8.60;;;;;;;15.15;36.34;100154.52;105758;1257;59977;-61
2023/12/13 03:43:15;;;;;;;26.90;10.40;;;;;;;15.19;36.42;100158.33;105162;1261;64137;-61
2023/12/13 03:45:43;;;;;;;21.60;10.20;;;;;;;15.18;36.42;100159.66;105238;1257;61765;-60
2023/12/13 03:48:10;;;;;;;20.40;10.20;;;;;;;15.17;36.34;100159.35;105242;1257;63835;-57
2023/12/13 03:50:38;;;;;;;21.80;9.90;;;;;;;15.17;36.39;100162.40;105179;1257;59603;-57
2023/12/13 03:53:06;;;;;;;32.70;12.20;;;;;;;15.16;36.42;100163.59;105468;1257;59775;-58
2023/12/13 03:55:33;;;;;;;21.10;9.90;;;;;;;15.12;36.38;100159.72;105505;1258;62978;-58
2023/12/13 03:58:01;;;;;;;22.20;11.30;;;;;;;15.03;36.42;100156.20;105151;1257;61593;-58
2023/12/13 04:00:29;;;;;;;24.00;12.40;;;;;;;14.99;36.58;100156.58;105556;1263;63728;-59
2023/12/13 04:02:57;;;;;;;22.00;9.80;;;;;;;15.00;36.56;100155.68;105209;1257;60888;-61
2023/12/13 04:05:24;;;;;;;43.60;26.40;;;;;;;14.96;36.50;100152.68;105238;1261;59675;-60
2023/12/13 04:07:52;;;;;;;24.80;8.70;;;;;;;14.95;36.47;100152.48;105670;1258;63070;-60
2023/12/13 04:10:20;;;;;;;19.30;7.50;;;;;;;14.96;36.65;100154.83;105177;1263;60291;-60
2023/12/13 04:12:47;;;;;;;13.40;5.50;;;;;;;14.97;36.74;100157.34;105176;1261;62496;-59
2023/12/13 04:15:15;;;;;;;21.40;8.20;;;;;;;14.96;36.78;100152.71;105002;1262;59654;-60
2023/12/13 04:17:43;;;;;;;24.80;10.30;;;;;;;14.99;36.80;100152.77;105221;1262;59630;-61
2023/12/13 04:20:11;;;;;;;16.90;8.30;;;;;;;15.06;36.91;100152.56;105280;1263;64553;-61
2023/12/13 04:22:38;;;;;;;21.20;9.50;;;;;;;15.14;36.76;100155.79;105286;1257;61987;-62
2023/12/13 04:25:06;;;;;;;26.90;11.90;;;;;;;15.21;36.76;100159.70;105219;1261;63751;-60
2023/12/13 04:27:34;;;;;;;21.40;10.60;;;;;;;15.24;36.71;100154.77;105477;1257;59656;-60
2023/12/13 04:30:03;;;;;;;21.70;9.60;;;;;;;15.24;36.65;100154.44;105342;1260;59622;-62
2023/12/13 04:32:30;;;;;;;23.10;11.10;;;;;;;15.19;36.62;100155.84;105309;1257;62884;-61
2023/12/13 04:34:58;;;;;;;24.70;12.60;;;;;;;15.19;36.58;100156.70;105253;1263;60162;-61
2023/12/13 04:37:26;;;;;;;20.30;10.20;;;;;;;15.21;36.56;100155.62;105647;1257;62476;-62
2023/12/13 04:39:54;;;;;;;23.90;11.30;;;;;;;15.17;36.51;100154.74;105219;1261;59842;-62
2023/12/13 04:42:21;;;;;;;22.90;9.70;;;;;;;15.12;36.51;100159.75;105200;1257;59765;-63
2023/12/13 04:44:49;;;;;;;20.90;8.80;;;;;;;15.05;36.48;100165.55;105791;1260;64191;-62
2023/12/13 04:47:17;;;;;;;24.80;10.50;;;;;;;15.00;36.42;100163.92;105919;1257;61497;-64
2023/12/13 04:49:45;;;;;;;20.00;10.90;;;;;;;14.95;36.44;100159.54;105190;1262;63743;-58
2023/12/13 04:52:13;;;;;;;15.50;6.90;;;;;;;14.95;36.40;100156.02;105108;1257;60371;-60
2023/12/13 04:54:41;;;;;;;16.50;7.50;;;;;;;15.00;36.47;100153.30;105209;1263;60015;-63
2023/12/13 04:57:09;;;;;;;23.40;8.00;;;;;;;15.06;36.54;100154.49;105215;1257;62841;-60
2023/12/13 04:59:36;;;;;;;23.40;8.80;;;;;;;15.11;36.48;100157.17;105378;1257;61431;-60
2023/12/13 05:02:04;;;;;;;17.50;8.00;;;;;;;15.16;36.56;100158.27;105154;1257;63685;-59
2023/12/13 05:04:32;;;;;;;19.80;11.90;;;;;;;15.23;36.68;100155.54;105192;1258;59735;-62
2023/12/13 05:07:00;;;;;;;26.70;11.40;;;;;;;15.30;36.60;100155.54;105571;1257;59803;-62
2023/12/13 05:09:27;;;;;;;28.80;10.20;;;;;;;15.33;36.62;100156.01;105247;1263;62864;-63
2023/12/13 05:11:55;;;;;;;50.60;26.60;;;;;;;15.32;36.47;100154.12;105183;1258;61438;-61
2023/12/13 05:14:22;;;;;;;19.20;9.60;;;;;;;15.29;36.47;100155.34;105256;1261;63847;-61
2023/12/13 05:16:50;;;;;;;22.90;11.40;;;;;;;15.29;36.56;100154.58;105237;1258;59717;-62
2023/12/13 05:19:18;;;;;;;20.20;10.50;;;;;;;15.29;36.47;100159.60;105799;1262;59586;-62
2023/12/13 05:21:46;;;;;;;25.60;10.80;;;;;;;15.22;36.53;100163.05;105170;1257;62915;-59
2023/12/13 05:24:14;;;;;;;20.20;9.90;;;;;;;15.20;36.65;100165.40;105141;1256;61545;-60
2023/12/13 05:26:41;;;;;;;23.30;10.70;;;;;;;15.21;36.75;100169.94;105215;1257;63715;-60
2023/12/13 05:29:09;;;;;;;46.90;26.20;;;;;;;15.19;36.67;100174.73;104989;1266;60029;-58
2023/12/13 05:31:36;;;;;;;22.20;9.20;;;;;;;15.16;36.60;100177.10;105113;1257;60763;-60
2023/12/13 05:34:04;;;;;;;17.30;6.70;;;;;;;15.22;36.71;100177.22;105451;1262;62847;-63
2023/12/13 05:36:32;;;;;;;21.30;8.30;;;;;;;15.29;36.56;100180.02;105438;1263;60247;-59
2023/12/13 05:39:00;;;;;;;19.30;7.30;;;;;;;15.33;36.64;100173.94;105171;1260;62468;-59
2023/12/13 05:41:27;;;;;;;23.90;9.80;;;;;;;15.38;36.55;100172.17;105613;1263;59749;-57
2023/12/13 05:43:55;;;;;;;42.70;24.90;;;;;;;15.45;36.52;100171.17;105200;1262;59561;-59
2023/12/13 05:46:23;;;;;;;18.90;8.60;;;;;;;15.55;36.64;100168.75;105194;1260;63191;-60
2023/12/13 05:48:51;;;;;;;24.50;9.10;;;;;;;15.63;36.43;100168.80;105157;1263;68170;-59
2023/12/13 05:51:19;;;;;;;22.70;11.20;;;;;;;15.63;36.53;100166.49;105289;1260;63874;-59
2023/12/13 05:53:46;;;;;;;25.40;11.20;;;;;;;15.66;36.48;100171.32;105195;1258;59777;-58
2023/12/13 05:56:14;;;;;;;28.00;12.40;;;;;;;15.60;36.27;100177.91;105312;1262;59566;-59
2023/12/13 05:58:42;;;;;;;23.10;10.50;;;;;;;15.53;36.17;100181.51;105355;1260;64164;-59
2023/12/13 06:01:10;;;;;;;28.50;11.60;;;;;;;15.42;36.20;100189.02;105353;1257;60255;-57
2023/12/13 06:03:40;;;;;;;24.80;11.10;;;;;;;15.31;36.29;100188.84;105271;1263;62531;-60
2023/12/13 06:06:08;;;;;;;30.30;12.20;;;;;;;15.26;36.32;100195.56;105598;1263;59714;-61
2023/12/13 06:08:35;;;;;;;44.10;26.80;;;;;;;15.19;36.44;100198.88;105228;1262;59600;-61
2023/12/13 06:11:03;;;;;;;26.40;9.40;;;;;;;15.14;36.57;100202.80;105554;1261;64161;-59
2023/12/13 06:13:31;;;;;;;19.80;7.10;;;;;;;15.19;36.57;100204.81;105519;1260;60137;-62
2023/12/13 06:15:58;;;;;;;20.80;7.70;;;;;;;15.25;36.53;100201.64;105252;1259;64338;-58
2023/12/13 06:18:26;;;;;;;18.90;8.80;;;;;;;15.29;36.47;100202.21;106308;1257;59851;-59
2023/12/13 06:20:54;;;;;;;20.10;6.60;;;;;;;15.33;36.42;100203.87;105070;1260;61614;-56
2023/12/13 06:23:23;;;;;;;40.40;25.40;;;;;;;15.40;36.53;100206.19;105062;1257;64552;-57
2023/12/13 06:25:50;;;;;;;29.50;15.10;;;;;;;15.52;36.49;100204.02;108967;1263;60244;-57
2023/12/13 06:28:18;;;;;;;25.00;11.50;;;;;;;15.58;36.39;100203.58;108988;1256;64026;-57
2023/12/13 06:30:46;;;;;;;24.40;10.60;;;;;;;15.61;36.20;100203.28;108976;1257;57587;-57
2023/12/13 06:33:15;;;;;;;24.00;9.40;;;;;;;15.64;36.25;100205.80;107493;1261;60368;-57
2023/12/13 06:35:43;;;;;;;24.10;10.90;;;;;;;15.67;36.21;100202.23;106622;1257;64170;-58
2023/12/13 06:38:10;;;;;;;24.00;11.30;;;;;;;15.66;36.21;100197.64;105244;1271;61783;-57
2023/12/13 06:40:38;;;;;;;28.00;13.80;;;;;;;15.61;36.15;100198.08;105243;1263;63750;-56
2023/12/13 06:43:07;;;;;;;45.10;29.00;;;;;;;15.53;36.17;100196.00;105519;1261;60110;-68
2023/12/13 06:45:34;;;;;;;28.70;11.40;;;;;;;15.47;36.13;100200.28;106007;1263;59659;-64
2023/12/13 06:48:02;;;;;;;21.90;9.40;;;;;;;15.48;36.20;100204.09;105890;1261;64542;-74
2023/12/13 06:50:30;;;;;;;18.70;7.70;;;;;;;15.51;36.20;100209.74;105999;1263;60612;-69
2023/12/13 06:52:58;;;;;;;23.80;9.80;;;;;;;15.57;36.16;100212.52;105868;1261;63728;-70
2023/12/13 06:55:26;;;;;;;43.80;27.60;;;;;;;15.67;36.42;100206.92;105932;1257;60540;-71
2023/12/13 06:57:53;;;;;;;21.80;7.80;;;;;;;15.78;36.44;100205.09;105878;1262;60358;-71
2023/12/13 07:00:23;;;;;;;25.00;11.40;;;;;;;15.84;36.29;100207.27;105726;1261;64995;-65
2023/12/13 07:02:51;;;;;;;24.60;12.80;;;;;;;15.84;36.20;100213.44;105962;1257;61390;-66
2023/12/13 07:05:19;;;;;;;24.00;11.70;;;;;;;15.84;36.13;100210.27;105876;1260;63882;-66
2023/12/13 07:07:48;;;;;;;25.30;13.10;;;;;;;15.81;36.02;100210.38;105919;1261;61608;-63
2023/12/13 07:10:15;;;;;;;27.50;11.40;;;;;;;15.77;36.06;100210.14;105900;1258;60457;-69
2023/12/13 07:12:43;;;;;;;24.80;12.90;;;;;;;15.72;36.02;100205.66;105932;1258;64905;-67
2023/12/13 07:15:11;;;;;;;45.00;29.30;;;;;;;15.67;36.11;100207.28;105753;1263;60469;-67
2023/12/13 07:17:39;;;;;;;26.10;11.50;;;;;;;15.61;36.21;100210.54;105871;1260;63542;-67
2023/12/13 07:20:07;;;;;;;20.70;7.80;;;;;;;15.63;36.15;100211.01;105869;1261;60482;-66
2023/12/13 07:22:35;;;;;;;22.60;7.90;;;;;;;15.69;36.17;100213.59;105890;1260;60389;-66
2023/12/13 07:25:06;;;;;;;24.30;13.40;;;;;;;15.75;36.25;100220.70;105886;1263;64862;-65
2023/12/13 07:27:34;;;;;;;33.00;12.20;;;;;;;15.85;36.20;100219.39;105927;1262;60357;-69
2023/12/13 07:30:03;;;;;;;47.50;29.20;;;;;;;15.92;36.19;100224.14;105641;1264;71767;-64
2023/12/13 07:32:33;;;;;;;24.00;12.20;;;;;;;15.98;36.23;100217.16;105882;1270;61007;-69
2023/12/13 07:35:01;;;;;;;48.90;30.40;;;;;;;15.97;36.18;100224.98;105921;1258;60607;-71
2023/12/13 07:37:29;;;;;;;24.10;10.90;;;;;;;15.97;35.97;100226.45;106240;1256;63731;-68
2023/12/13 07:39:56;;;;;;;30.30;14.10;;;;;;;15.92;35.92;100228.66;105962;1259;61438;-66
2023/12/13 07:42:24;;;;;;;26.00;11.00;;;;;;;15.86;35.97;100228.60;105896;1260;62633;-67
2023/12/13 07:44:52;;;;;;;27.60;13.20;;;;;;;15.84;36.11;100228.16;105957;1263;60510;-68
2023/12/13 07:47:19;;;;;;;27.20;13.70;;;;;;;15.83;36.07;100224.55;105939;1262;59824;-69
2023/12/13 07:49:47;;;;;;;29.30;13.10;;;;;;;15.82;36.03;100225.57;105920;1263;65039;-66
2023/12/13 07:52:15;;;;;;;26.40;10.20;;;;;;;15.80;36.15;100225.20;106424;1262;60267;-68
2023/12/13 07:54:42;;;;;;;23.10;12.70;;;;;;;15.77;36.06;100221.91;105796;1264;62523;-70
2023/12/13 07:57:10;;;;;;;26.90;10.80;;;;;;;15.79;36.07;100221.61;105973;1257;60452;-68
2023/12/13 07:59:38;;;;;;;22.00;10.20;;;;;;;15.87;36.05;100218.98;105914;1260;60450;-68
2023/12/13 08:02:06;;;;;;;42.80;26.60;;;;;;;15.90;35.94;100221.66;105971;1270;64934;-66
2023/12/13 08:04:34;;;;;;;20.00;9.40;;;;;;;15.91;35.89;100216.82;105902;1260;60514;-66
2023/12/13 08:07:01;;;;;;;26.60;11.80;;;;;;;15.94;35.90;100214.54;105948;1267;63711;-64
2023/12/13 08:09:30;;;;;;;43.20;27.00;;;;;;;15.96;36.02;100214.29;105984;1261;60525;-68
2023/12/13 08:11:58;;;;;;;21.90;11.90;;;;;;;15.98;36.05;100210.77;105930;1256;60489;-66
2023/12/13 08:14:30;;;;;;;28.50;12.90;;;;;;;15.98;36.13;100201.52;105867;1258;64969;-65
2023/12/13 08:17:01;;;;;;;33.20;14.50;;;;;;;16.01;36.11;100200.18;106081;1260;61400;-65
2023/12/13 08:19:30;;;;;;;48.60;29.90;;;;;;;16.04;36.11;100197.77;106103;1262;62428;-68
2023/12/13 08:21:58;;;;;;;35.90;13.60;;;;;;;16.08;36.17;100191.67;106090;1262;60655;-65
2023/12/13 08:24:26;;;;;;;26.40;9.80;;;;;;;16.12;36.21;100194.38;106004;1257;59244;-67
2023/12/13 08:26:53;;;;;;;26.80;14.10;;;;;;;16.13;36.16;100197.30;106114;1258;65383;-65
2023/12/13 08:29:21;;;;;;;20.10;10.90;;;;;;;16.08;36.05;100198.17;106070;1262;61918;-63
2023/12/13 08:31:49;;;;;;;37.10;25.40;;;;;;;15.99;35.95;100195.20;105917;1261;62492;-64
2023/12/13 08:34:17;;;;;;;20.20;9.50;;;;;;;15.92;36.10;100194.80;105580;1263;60506;-67
2023/12/13 08:36:44;;;;;;;19.80;9.30;;;;;;;15.93;36.26;100192.38;105927;1260;60361;-66
2023/12/13 08:39:12;;;;;;;18.50;7.50;;;;;;;16.01;36.13;100188.34;105797;1262;64868;-64
2023/12/13 08:41:40;;;;;;;36.60;23.20;;;;;;;16.07;36.04;100189.94;105798;1260;60439;-67
2023/12/13 08:44:07;;;;;;;15.70;6.60;;;;;;;16.13;36.30;100199.08;105695;1260;62522;-66
2023/12/13 08:46:36;;;;;;;20.90;9.10;;;;;;;16.23;36.20;100199.66;105651;1263;60526;-64
2023/12/13 08:49:04;;;;;;;19.60;9.60;;;;;;;16.28;36.11;100191.23;105728;1257;59535;-63
2023/12/13 08:51:31;;;;;;;34.90;22.40;;;;;;;16.34;36.13;100196.28;105624;1262;64858;-61
2023/12/13 08:53:59;;;;;;;22.10;9.80;;;;;;;16.38;35.95;100197.02;105741;1258;60373;-60
2023/12/13 08:56:27;;;;;;;20.60;9.00;;;;;;;16.37;35.96;100191.08;105659;1260;62637;-64
2023/12/13 08:58:54;;;;;;;22.60;9.20;;;;;;;16.33;35.89;100187.52;105734;1258;60494;-65
2023/12/13 09:01:23;;;;;;;23.30;12.00;;;;;;;16.28;35.86;100190.74;105825;1262;60435;-64
2023/12/13 09:03:54;;;;;;;38.90;23.90;;;;;;;16.25;35.86;100195.74;106313;1258;64934;-64
2023/12/13 09:06:22;;;;;;;18.40;10.30;;;;;;;16.24;35.89;100196.70;105746;1257;60376;-63
2023/12/13 09:08:50;;;;;;;13.50;6.20;;;;;;;16.28;35.80;100194.09;105673;1258;62686;-62
2023/12/13 09:11:18;;;;;;;34.40;22.70;;;;;;;16.34;35.66;100195.02;105731;1257;60574;-62
2023/12/13 09:13:46;;;;;;;22.10;8.00;;;;;;;16.36;35.79;100193.80;105784;1258;60769;-65
2023/12/13 09:16:13;;;;;;;20.50;9.20;;;;;;;16.40;35.83;100195.33;105860;1257;65222;-64
2023/12/13 09:18:43;;;;;;;25.10;11.00;;;;;;;16.42;35.85;100195.45;105908;1260;60402;-59
2023/12/13 09:21:11;;;;;;;36.40;24.40;;;;;;;16.44;35.85;100192.77;105963;1259;62507;-66
2023/12/13 09:23:40;;;;;;;20.00;10.30;;;;;;;16.42;35.84;100190.96;105904;1258;60591;-62
2023/12/13 09:26:13;;;;;;;40.70;25.70;;;;;;;16.37;35.77;100191.70;105909;1263;60345;-62
2023/12/13 09:28:41;;;;;;;23.70;11.30;;;;;;;16.31;35.72;100194.83;105858;1257;63950;-67
2023/12/13 09:31:10;;;;;;;19.30;9.10;;;;;;;16.27;35.75;100195.67;105878;1260;60485;-63
2023/12/13 09:33:39;;;;;;;36.10;13.50;;;;;;;16.19;35.70;100193.68;105846;1258;63861;-61
2023/12/13 09:36:08;;;;;;;21.50;11.70;;;;;;;16.10;35.77;100194.83;105891;1264;60562;-63
2023/12/13 09:38:35;;;;;;;26.30;10.10;;;;;;;16.10;35.82;100192.88;105794;1263;60381;-64
2023/12/13 09:41:03;;;;;;;21.60;7.60;;;;;;;16.16;35.79;100189.02;105895;1257;63627;-63
2023/12/13 09:43:31;;;;;;;23.60;10.40;;;;;;;16.18;35.81;100189.89;105795;1257;61430;-61
2023/12/13 09:46:05;;;;;;;26.80;11.10;;;;;;;16.20;35.81;100192.19;105652;1260;62549;-64
2023/12/13 09:48:34;;;;;;;42.90;26.70;;;;;;;16.23;35.87;100195.05;105823;1261;60985;-60
2023/12/13 09:51:02;;;;;;;22.30;13.00;;;;;;;16.26;35.91;100201.11;106027;1256;61575;-64
2023/12/13 09:53:30;;;;;;;28.10;12.60;;;;;;;16.28;35.88;100202.84;105870;1257;64959;-63
2023/12/13 09:55:57;;;;;;;23.90;10.50;;;;;;;16.30;35.90;100201.36;105698;1259;62136;-61
2023/12/13 09:58:25;;;;;;;37.80;25.90;;;;;;;16.32;35.83;100203.48;105757;1263;62445;-63
2023/12/13 10:00:53;;;;;;;29.90;12.40;;;;;;;16.31;35.91;100198.61;105891;1258;60539;-61
2023/12/13 10:03:20;;;;;;;25.30;10.00;;;;;;;16.28;35.80;100199.27;105808;1263;60419;-63
2023/12/13 10:05:48;;;;;;;29.30;11.80;;;;;;;16.17;35.74;100202.04;105867;1257;64934;-62
2023/12/13 10:08:16;;;;;;;27.90;12.20;;;;;;;16.07;35.82;100197.45;105911;1257;61397;-64
2023/12/13 10:10:47;;;;;;;26.60;11.40;;;;;;;16.00;36.09;100193.16;105869;1261;62442;-63
2023/12/13 10:13:15;;;;;;;15.40;7.30;;;;;;;16.02;36.11;100190.89;106003;1260;60572;-61
2023/12/13 10:15:42;;;;;;;18.60;7.50;;;;;;;16.11;36.02;100189.41;106012;1257;60373;-61
2023/12/13 10:18:10;;;;;;;17.70;6.90;;;;;;;16.18;36.02;100184.02;106110;1257;64946;-61
2023/12/13 10:20:38;;;;;;;26.90;11.80;;;;;;;16.28;36.01;100183.84;105995;1260;60521;-60
2023/12/13 10:23:05;;;;;;;37.60;24.60;;;;;;;16.41;35.97;100180.52;106016;1258;74883;-62
2023/12/13 10:25:37;;;;;;;25.10;10.80;;;;;;;16.49;35.84;100173.15;105871;1257;60540;-62
2023/12/13 10:28:05;;;;;;;22.70;9.70;;;;;;;16.57;35.76;100166.97;106390;1258;62034;-63
2023/12/13 10:30:32;;;;;;;39.00;25.60;;;;;;;16.60;35.72;100160.76;106043;1261;64890;-61
2023/12/13 10:33:00;;;;;;;23.60;9.80;;;;;;;16.62;35.68;100156.50;105983;1258;61366;-64
2023/12/13 10:35:28;;;;;;;23.00;9.90;;;;;;;16.65;35.65;100157.77;105977;1257;63733;-66
2023/12/13 10:37:56;;;;;;;39.50;26.20;;;;;;;16.64;35.58;100165.51;105999;1260;60433;-61
2023/12/13 10:40:24;;;;;;;23.10;11.00;;;;;;;16.60;35.52;100166.60;105826;1263;60569;-64
2023/12/13 10:42:52;;;;;;;23.00;7.40;;;;;;;16.60;35.39;100167.73;105950;1261;64876;-63
2023/12/13 10:45:20;;;;;;;18.00;7.90;;;;;;;16.66;35.50;100164.36;105920;1260;60450;-62
2023/12/13 10:47:47;;;;;;;36.30;23.20;;;;;;;16.77;35.33;100166.35;105791;1263;65926;-62
2023/12/13 10:50:15;;;;;;;19.50;9.50;;;;;;;16.87;35.29;100165.27;105886;1258;61767;-63
2023/12/13 10:52:43;;;;;;;37.60;24.70;;;;;;;16.95;35.39;100163.02;105791;1264;60495;-62
2023/12/13 10:55:13;;;;;;;16.40;8.00;;;;;;;16.99;35.17;100156.53;105625;1263;64223;-62
2023/12/13 10:57:40;;;;;;;40.30;24.50;;;;;;;16.95;35.05;100152.37;105836;1260;61818;-62
2023/12/13 11:00:08;;;;;;;26.00;9.60;;;;;;;16.89;35.15;100145.53;105914;1257;62529;-62
2023/12/13 11:02:41;;;;;;;23.90;10.80;;;;;;;16.86;35.07;100145.08;105841;1261;60634;-60
2023/12/13 11:05:10;;;;;;;39.60;25.50;;;;;;;16.80;35.24;100143.17;106050;1257;60529;-61
2023/12/13 11:07:47;;;;;;;26.20;10.90;;;;;;;16.80;35.30;100145.29;105932;1257;65062;-61
2023/12/13 11:10:15;;;;;;;20.80;11.10;;;;;;;16.81;35.23;100148.88;105883;1260;60429;-64